Main page
METAR-TAF:

METAR-TAF

Airports :

Henri Coandă International Airport

Bucharest, Romania

latitude: 44-33N, longitude: 026-06E, elevation: 95 m

Current weather observation

The report was made 15 minutes ago, at 06:30 UTC
Wind 4 kt from the North/Northwest, varying between Northwest and North
Temperature 27°C
Humidity 51%
Pressure 1016 hPa
Visibility 10 km or more
no clouds below 1500 m and no cumulonimbus

METAR: LROP 180630Z 33004KT 310V010 CAVOK 27/16 Q1016 NOSIG

Time: 09:45 (06:45 UTC)

Forecast

The report was made 1 hour and 45 minutes ago, at 05:00 UTC
Forecast valid from 18 at 06 UTC to 19 at 06 UTC
Wind 4 kt from variable directions
Visibility 10 km or more
no clouds below 1500 m and no cumulonimbus
Becoming
from 18 at 08 UTC to 18 at 10 UTC
Wind 10 kt from the North/Northeast
Temporary
from 18 at 13 UTC to 18 at 17 UTC
Scattered clouds at a height of 4500 ft, Cumulonimbus.

TAF: LROP 180500Z 1806/1906 VRB04KT CAVOK BECMG 1808/1810 03010KT TEMPO 1813/1817 SCT045CB

Weather observations and forecasts of more than 4000 airports (METAR and TAF reports).

The available stations are represented by yellow and red dots on the map.

Hover mouse over dot to see the name of the station.

Then click to see weather observations and forecasts.

To change the map : click on the green buttons with a black cross to zoom in, on the green button with a dash to zoom out, or on the green arrows for adjacent maps.


METAR-TAF: